Time;durP1;ratioP1;P1;durP2;ratioP2;P2;SDS_P1;SDS_P2;PMS_P1;PMS_P2;Temp;Humidity;BMP_temperature;BMP_pressure;BME280_temperature;BME280_humidity;BME280_pressure;Samples;Min_cycle;Max_cycle;Signal;HPM_P1;HPM_P2
2022/07/29 00:02:13;;;;;;;3.38;1.15;;;16.60;99.90;;;;;;5052463;28;20120;-48
2022/07/29 00:04:38;;;;;;;3.42;0.85;;;16.60;99.90;;;;;;5050813;28;20503;-51
2022/07/29 00:07:04;;;;;;;3.50;0.88;;;16.60;99.90;;;;;;5050495;28;20047;-50
2022/07/29 00:09:31;;;;;;;3.30;1.00;;;16.70;99.90;;;;;;5052351;28;20032;-52
2022/07/29 00:11:59;;;;;;;2.38;0.95;;;16.60;99.90;;;;;;5051752;28;20131;-52
2022/07/29 00:14:25;;;;;;;2.42;0.80;;;16.50;99.90;;;;;;5052259;28;20037;-52
2022/07/29 00:16:50;;;;;;;4.88;1.30;;;16.50;99.90;;;;;;5051618;28;20040;-49
2022/07/29 00:19:16;;;;;;;4.32;1.20;;;16.50;99.90;;;;;;5052164;28;20039;-52
2022/07/29 00:21:42;;;;;;;2.65;1.00;;;16.50;99.90;;;;;;5051456;28;20036;-50
2022/07/29 00:24:08;;;;;;;7.88;1.42;;;16.40;99.90;;;;;;5049270;28;20033;-52
2022/07/29 00:26:33;;;;;;;3.22;1.02;;;16.50;99.90;;;;;;5050576;28;20036;-50
2022/07/29 00:29:04;;;;;;;2.88;1.10;;;16.40;99.90;;;;;;5054458;28;20040;-52
2022/07/29 00:31:29;;;;;;;2.78;1.00;;;16.40;99.90;;;;;;5052902;28;20437;-50
2022/07/29 00:33:56;;;;;;;3.58;1.20;;;16.50;99.90;;;;;;5051539;28;20049;-51
2022/07/29 00:36:21;;;;;;;2.90;1.20;;;16.50;99.90;;;;;;5051693;28;20500;-50
2022/07/29 00:38:49;;;;;;;2.63;1.08;;;16.50;99.90;;;;;;5051652;28;20039;-48
2022/07/29 00:41:15;;;;;;;2.65;1.20;;;16.40;99.90;;;;;;5051328;28;20099;-49
2022/07/29 00:43:42;;;;;;;2.45;1.02;;;16.50;99.90;;;;;;5051698;28;20036;-48
2022/07/29 00:46:07;;;;;;;3.10;1.10;;;16.50;99.90;;;;;;5049987;28;20060;-51
2022/07/29 00:48:36;;;;;;;3.17;1.00;;;16.30;99.90;;;;;;5051348;28;20064;-50
2022/07/29 00:51:03;;;;;;;2.65;1.13;;;16.40;99.90;;;;;;5051034;28;20045;-51
2022/07/29 00:53:30;;;;;;;4.25;1.38;;;16.30;99.90;;;;;;5051409;28;20387;-52
2022/07/29 00:55:56;;;;;;;3.85;1.17;;;16.30;99.90;;;;;;5050463;28;20130;-53
2022/07/29 00:58:23;;;;;;;4.18;1.25;;;16.30;99.90;;;;;;5050822;28;20041;-48
2022/07/29 01:00:49;;;;;;;2.50;1.00;;;16.30;99.90;;;;;;5049392;28;20056;-50
2022/07/29 01:03:15;;;;;;;3.67;1.25;;;16.20;99.90;;;;;;5050141;28;20041;-49
2022/07/29 01:05:44;;;;;;;3.58;1.15;;;16.30;99.90;;;;;;5051230;28;20434;-54
2022/07/29 01:08:12;;;;;;;4.28;1.33;;;16.20;99.90;;;;;;5050902;28;20491;-50
2022/07/29 01:10:39;;;;;;;2.65;1.10;;;16.20;99.90;;;;;;5049406;28;20040;-52
2022/07/29 01:13:06;;;;;;;3.63;1.10;;;16.20;99.90;;;;;;5052516;28;20558;-53
2022/07/29 01:15:36;;;;;;;3.53;1.08;;;16.20;99.90;;;;;;5051139;28;20045;-53
2022/07/29 01:18:08;;;;;;;3.10;1.40;;;16.10;99.90;;;;;;5051725;28;20069;-50
2022/07/29 01:20:56;;;;;;;4.00;1.40;;;16.10;99.90;;;;;;5050838;28;20041;-49
2022/07/29 01:23:48;;;;;;;4.15;1.40;;;16.20;99.90;;;;;;5051105;28;20483;-48
2022/07/29 01:26:45;;;;;;;3.42;1.25;;;16.10;99.90;;;;;;5022341;28;20048;-49
2022/07/29 01:29:44;;;;;;;3.47;1.27;;;16.10;99.90;;;;;;5050737;28;20056;-51
2022/07/29 01:32:15;;;;;;;4.40;1.67;;;16.00;99.90;;;;;;5050846;28;20112;-50
2022/07/29 01:34:58;;;;;;;4.70;1.42;;;16.00;99.90;;;;;;5050376;28;20548;-50
2022/07/29 01:37:55;;;;;;;4.78;1.60;;;16.10;99.90;;;;;;5050506;28;20040;-51
2022/07/29 01:40:28;;;;;;;2.67;1.23;;;16.00;99.90;;;;;;5050621;28;20033;-52
2022/07/29 01:42:57;;;;;;;3.92;1.40;;;16.10;99.90;;;;;;5050753;28;20056;-52
2022/07/29 01:45:44;;;;;;;3.65;1.20;;;16.00;99.90;;;;;;5050601;28;20518;-50
2022/07/29 01:48:19;;;;;;;4.45;1.35;;;16.00;99.90;;;;;;5049599;28;20117;-49
2022/07/29 01:50:53;;;;;;;3.42;1.23;;;16.00;99.90;;;;;;5050560;28;20124;-47
2022/07/29 01:53:29;;;;;;;3.45;1.40;;;16.00;99.90;;;;;;5050339;28;20037;-53
2022/07/29 01:55:58;;;;;;;3.17;1.40;;;15.90;99.90;;;;;;5050567;28;20040;-50
2022/07/29 01:58:25;;;;;;;4.15;1.60;;;15.90;99.90;;;;;;5052456;28;20121;-54
2022/07/29 02:00:52;;;;;;;4.80;1.48;;;15.90;99.90;;;;;;5051532;28;20471;-53
2022/07/29 02:03:18;;;;;;;2.90;1.40;;;15.90;99.90;;;;;;5049067;28;20049;-50
2022/07/29 02:05:47;;;;;;;5.90;1.80;;;15.80;99.90;;;;;;5051626;28;20037;-50
2022/07/29 02:08:15;;;;;;;4.03;1.48;;;15.80;99.90;;;;;;5054478;28;20045;-49
2022/07/29 02:10:44;;;;;;;4.18;1.65;;;15.80;99.90;;;;;;5054513;28;20138;-52
2022/07/29 02:13:12;;;;;;;4.82;1.60;;;15.80;99.90;;;;;;5054169;28;20067;-53
2022/07/29 02:15:40;;;;;;;4.00;1.45;;;15.70;99.90;;;;;;5054534;28;20485;-50
2022/07/29 02:18:09;;;;;;;3.47;1.30;;;15.70;99.90;;;;;;5054154;28;20040;-53
2022/07/29 02:20:37;;;;;;;3.67;1.50;;;15.80;99.90;;;;;;5054391;28;20189;-53
2022/07/29 02:23:04;;;;;;;4.05;1.70;;;15.70;99.90;;;;;;5054210;28;20037;-53
2022/07/29 02:25:30;;;;;;;3.65;1.65;;;15.80;99.90;;;;;;5053781;28;20064;-51
2022/07/29 02:27:58;;;;;;;3.45;1.50;;;15.70;99.90;;;;;;5053770;28;20049;-52
2022/07/29 02:30:26;;;;;;;3.85;1.40;;;15.70;99.90;;;;;;5054249;28;20033;-52
2022/07/29 02:32:54;;;;;;;3.17;1.40;;;15.70;99.90;;;;;;5053833;28;20107;-50
2022/07/29 02:35:21;;;;;;;3.20;1.30;;;15.60;99.90;;;;;;5056471;28;20072;-50
2022/07/29 02:40:38;;;;;;;3.85;1.38;;;15.70;99.90;;;;;;5051632;28;20048;-52
2022/07/29 02:43:06;;;;;;;4.72;1.60;;;15.60;99.90;;;;;;5054069;28;20040;-50
2022/07/29 02:45:34;;;;;;;5.32;1.63;;;15.60;99.90;;;;;;5056975;28;20447;-50
2022/07/29 02:48:09;;;;;;;3.28;1.30;;;15.60;99.90;;;;;;5053611;28;20069;-53
2022/07/29 02:50:48;;;;;;;3.13;1.45;;;15.60;99.90;;;;;;5053487;28;20492;-52
2022/07/29 02:53:13;;;;;;;3.97;1.50;;;15.60;99.90;;;;;;5052126;28;20045;-51
2022/07/29 02:56:27;;;;;;;4.00;1.42;;;15.60;99.90;;;;;;5053724;28;20391;-51
2022/07/29 02:59:00;;;;;;;5.07;1.50;;;15.60;99.90;;;;;;5050202;28;20504;-51
2022/07/29 03:01:31;;;;;;;3.30;1.50;;;15.70;99.90;;;;;;5053811;28;20110;-54
2022/07/29 03:04:02;;;;;;;3.53;1.38;;;15.60;99.90;;;;;;5053188;28;20037;-50
2022/07/29 03:06:30;;;;;;;2.63;1.55;;;15.60;99.90;;;;;;5053181;28;20446;-50
2022/07/29 03:08:57;;;;;;;2.92;1.30;;;15.60;99.90;;;;;;5053510;28;20045;-54
2022/07/29 03:11:24;;;;;;;3.83;1.52;;;15.50;99.90;;;;;;5052057;28;20044;-49
2022/07/29 03:13:50;;;;;;;5.70;1.30;;;15.40;99.90;;;;;;5051916;28;20416;-49
2022/07/29 03:16:18;;;;;;;4.65;1.40;;;15.40;99.90;;;;;;5053298;28;20041;-49
2022/07/29 03:18:44;;;;;;;2.65;1.38;;;15.50;99.90;;;;;;5052126;28;20033;-51
2022/07/29 03:21:09;;;;;;;5.60;1.80;;;15.40;99.90;;;;;;5052881;28;20044;-50
2022/07/29 03:23:35;;;;;;;3.15;1.42;;;15.40;99.90;;;;;;5050683;28;20081;-51
2022/07/29 03:26:01;;;;;;;3.72;1.42;;;15.40;99.90;;;;;;5053021;28;20507;-53
2022/07/29 03:28:27;;;;;;;3.55;1.23;;;15.50;99.90;;;;;;5055931;28;20417;-51
2022/07/29 03:30:53;;;;;;;3.55;1.17;;;15.40;99.90;;;;;;5053164;28;20494;-53
2022/07/29 03:33:19;;;;;;;3.35;1.40;;;15.30;99.90;;;;;;5052844;28;20060;-51
2022/07/29 03:35:45;;;;;;;3.15;1.40;;;15.40;99.90;;;;;;5052741;28;20041;-50
2022/07/29 03:38:10;;;;;;;5.97;1.60;;;15.40;99.90;;;;;;5052220;28;20041;-52
2022/07/29 03:41:01;;;;;;;3.55;1.45;;;15.40;99.90;;;;;;5052685;28;20391;-53
2022/07/29 03:43:31;;;;;;;4.45;1.35;;;15.30;99.90;;;;;;5052755;28;20044;-50
2022/07/29 03:45:58;;;;;;;5.53;1.20;;;15.30;99.90;;;;;;5052285;28;20182;-51
2022/07/29 03:48:29;;;;;;;6.47;1.60;;;15.30;99.90;;;;;;5034526;28;20053;-53
2022/07/29 03:50:55;;;;;;;2.22;1.10;;;15.20;99.90;;;;;;5052272;28;20078;-52
2022/07/29 03:53:21;;;;;;;7.32;1.40;;;15.10;99.90;;;;;;5052341;28;20041;-50
2022/07/29 03:55:50;;;;;;;4.45;1.70;;;15.10;99.90;;;;;;5051095;28;20056;-50
2022/07/29 03:58:18;;;;;;;3.95;1.38;;;15.20;99.90;;;;;;5050947;28;20033;-49
2022/07/29 04:00:46;;;;;;;4.30;1.42;;;15.10;99.90;;;;;;5052205;28;20037;-50
2022/07/29 04:03:13;;;;;;;3.40;1.50;;;15.20;99.90;;;;;;5052608;28;20033;-53
2022/07/29 04:05:39;;;;;;;2.97;1.27;;;15.10;99.90;;;;;;5051792;28;20037;-53
2022/07/29 04:08:05;;;;;;;5.22;1.30;;;15.10;99.90;;;;;;5051734;28;20098;-51
2022/07/29 04:10:30;;;;;;;4.13;1.35;;;15.00;99.90;;;;;;5051818;28;20086;-49
2022/07/29 04:12:56;;;;;;;3.10;1.38;;;15.00;99.90;;;;;;5053722;28;20050;-50
2022/07/29 04:15:22;;;;;;;4.50;1.42;;;15.10;99.90;;;;;;5052135;28;20068;-50
2022/07/29 04:17:48;;;;;;;3.63;1.38;;;15.10;99.90;;;;;;5052637;28;20033;-51
2022/07/29 04:20:13;;;;;;;4.90;1.13;;;14.90;99.90;;;;;;5051970;28;20037;-49
2022/07/29 04:22:40;;;;;;;4.72;1.40;;;15.00;99.90;;;;;;5052041;28;20111;-53
2022/07/29 04:25:06;;;;;;;4.65;1.73;;;14.90;99.90;;;;;;5051834;28;20037;-48
2022/07/29 04:27:32;;;;;;;3.30;1.40;;;15.00;99.90;;;;;;5051702;28;20048;-51
2022/07/29 04:29:57;;;;;;;4.65;1.30;;;14.90;99.90;;;;;;5051600;28;20479;-51
2022/07/29 04:32:24;;;;;;;4.65;1.52;;;14.90;99.90;;;;;;5050701;28;20446;-50
2022/07/29 04:34:50;;;;;;;4.55;1.30;;;14.90;99.90;;;;;;5051238;28;20041;-51
2022/07/29 04:37:16;;;;;;;4.82;1.50;;;14.90;99.90;;;;;;5051363;28;20400;-49
2022/07/29 04:39:42;;;;;;;6.72;1.70;;;14.90;99.90;;;;;;5051758;28;20033;-52
2022/07/29 04:42:07;;;;;;;3.67;1.52;;;14.80;99.90;;;;;;5051446;28;20087;-53
2022/07/29 04:44:33;;;;;;;6.13;1.52;;;14.90;99.90;;;;;;5051477;28;20053;-52
2022/07/29 04:46:59;;;;;;;5.15;1.75;;;14.80;99.90;;;;;;5051299;28;20510;-50
2022/07/29 04:49:24;;;;;;;8.35;2.88;;;14.80;99.90;;;;;;5051566;28;20037;-49
2022/07/29 04:51:50;;;;;;;3.33;1.38;;;14.90;99.90;;;;;;5051248;28;20083;-53
2022/07/29 04:54:16;;;;;;;4.18;1.92;;;14.90;99.90;;;;;;5051018;28;20098;-53
2022/07/29 04:56:41;;;;;;;4.20;1.67;;;14.80;99.90;;;;;;5051576;28;20040;-50
2022/07/29 04:59:07;;;;;;;2.85;1.23;;;14.90;99.90;;;;;;5053406;28;20049;-54
2022/07/29 05:01:33;;;;;;;4.15;1.35;;;14.90;99.90;;;;;;5051277;28;20032;-52
2022/07/29 05:03:58;;;;;;;4.15;1.60;;;15.00;99.90;;;;;;5051286;28;20068;-49
2022/07/29 05:06:24;;;;;;;5.10;1.85;;;15.00;99.90;;;;;;5050504;28;20056;-53
2022/07/29 05:08:50;;;;;;;3.42;1.50;;;15.00;99.90;;;;;;5051351;28;20087;-49
2022/07/29 05:11:15;;;;;;;3.53;1.50;;;14.90;99.90;;;;;;5050870;28;20159;-53
2022/07/29 05:13:41;;;;;;;3.80;1.42;;;15.00;99.90;;;;;;5051014;28;20059;-48
2022/07/29 05:16:08;;;;;;;4.40;1.52;;;15.00;99.90;;;;;;5050689;28;20072;-50
2022/07/29 05:18:33;;;;;;;3.30;1.60;;;15.00;99.90;;;;;;5050829;28;20115;-51
2022/07/29 05:20:59;;;;;;;4.53;1.50;;;15.10;99.90;;;;;;5050700;28;20121;-53
2022/07/29 05:23:25;;;;;;;4.28;1.52;;;15.20;99.90;;;;;;5050951;28;20072;-51
2022/07/29 05:25:50;;;;;;;4.35;1.27;;;15.10;99.90;;;;;;5050720;28;20041;-52
2022/07/29 05:28:16;;;;;;;8.02;1.63;;;15.20;99.90;;;;;;5051004;28;20124;-52
2022/07/29 05:30:42;;;;;;;3.53;1.15;;;15.20;99.90;;;;;;5049188;28;20546;-51
2022/07/29 05:33:07;;;;;;;3.85;1.85;;;15.20;99.90;;;;;;5052356;28;20051;-49
2022/07/29 05:35:34;;;;;;;3.50;1.50;;;15.30;99.90;;;;;;5051061;28;20072;-50
2022/07/29 05:38:00;;;;;;;4.60;1.50;;;15.40;99.90;;;;;;5050086;28;20045;-49
2022/07/29 05:40:26;;;;;;;2.88;1.58;;;15.50;99.90;;;;;;5050858;28;20108;-49
2022/07/29 05:42:52;;;;;;;3.22;1.35;;;15.40;99.90;;;;;;5054015;28;20044;-50
2022/07/29 05:45:17;;;;;;;4.85;1.45;;;15.50;99.90;;;;;;5051923;28;20369;-49
2022/07/29 05:47:43;;;;;;;2.85;1.48;;;15.50;99.90;;;;;;5050043;28;20045;-51
2022/07/29 05:50:09;;;;;;;4.63;1.63;;;15.60;99.90;;;;;;5048711;28;20052;-47
2022/07/29 05:52:34;;;;;;;3.50;1.40;;;15.70;99.90;;;;;;5050585;28;20041;-52
2022/07/29 05:55:04;;;;;;;4.75;1.60;;;15.70;99.90;;;;;;5050586;28;20132;-52
2022/07/29 05:57:29;;;;;;;4.07;1.70;;;15.80;99.90;;;;;;5044337;28;20076;-49
2022/07/29 05:59:55;;;;;;;2.95;1.55;;;15.80;99.90;;;;;;5023930;28;20060;-50
2022/07/29 06:02:20;;;;;;;3.55;1.50;;;15.80;99.90;;;;;;5040750;28;20033;-49
2022/07/29 06:04:46;;;;;;;3.65;1.60;;;15.80;99.90;;;;;;5041979;28;20033;-49
2022/07/29 06:07:12;;;;;;;5.60;1.90;;;15.90;99.90;;;;;;5049991;28;20040;-53
2022/07/29 06:09:37;;;;;;;4.68;1.55;;;15.80;99.90;;;;;;5040389;28;20041;-48
2022/07/29 06:12:03;;;;;;;4.28;1.60;;;15.80;99.90;;;;;;5039250;28;20029;-48
2022/07/29 06:14:29;;;;;;;7.00;1.77;;;15.80;99.90;;;;;;5041384;28;20041;-52
2022/07/29 06:16:55;;;;;;;9.27;2.22;;;15.80;99.90;;;;;;5041461;28;20033;-50
2022/07/29 06:19:21;;;;;;;3.85;1.65;;;15.90;99.90;;;;;;5039555;28;20339;-50
2022/07/29 06:21:47;;;;;;;3.42;1.40;;;15.80;99.90;;;;;;5041806;28;20044;-48
2022/07/29 06:24:14;;;;;;;4.40;1.90;;;15.80;99.90;;;;;;5041166;28;20041;-51
2022/07/29 06:26:40;;;;;;;5.07;1.60;;;15.70;99.90;;;;;;5040273;28;20063;-48
2022/07/29 06:29:07;;;;;;;5.32;1.80;;;15.80;99.90;;;;;;5040497;28;20092;-53
2022/07/29 06:31:33;;;;;;;3.83;1.65;;;15.70;99.90;;;;;;5040939;28;20033;-52
2022/07/29 06:33:59;;;;;;;3.25;1.58;;;15.70;99.90;;;;;;5041228;28;20397;-52
2022/07/29 06:36:24;;;;;;;5.78;1.67;;;15.60;99.90;;;;;;5038350;28;20029;-49
2022/07/29 06:38:50;;;;;;;5.82;1.80;;;15.50;99.90;;;;;;5039034;28;20037;-50
2022/07/29 06:41:16;;;;;;;5.30;1.85;;;15.60;99.90;;;;;;5036918;28;20114;-50
2022/07/29 06:43:44;;;;;;;6.30;1.60;;;15.60;99.90;;;;;;5038767;28;20037;-50
2022/07/29 06:46:12;;;;;;;4.75;1.85;;;15.60;99.90;;;;;;5038152;28;20061;-52
2022/07/29 06:48:38;;;;;;;4.95;1.80;;;15.60;99.90;;;;;;5041362;28;20460;-51
2022/07/29 06:51:05;;;;;;;4.15;1.52;;;15.70;99.90;;;;;;5041876;28;20114;-49
2022/07/29 06:53:32;;;;;;;5.88;1.90;;;15.70;99.90;;;;;;5044031;28;20064;-47
2022/07/29 06:55:59;;;;;;;6.05;1.83;;;15.80;99.90;;;;;;5044745;28;20132;-50
2022/07/29 06:58:26;;;;;;;7.25;1.85;;;15.70;99.90;;;;;;5044963;28;20037;-52
2022/07/29 07:00:52;;;;;;;4.70;1.98;;;15.70;99.90;;;;;;5036617;28;20477;-52
2022/07/29 07:03:19;;;;;;;7.00;1.90;;;15.70;99.90;;;;;;5042793;28;20036;-51
2022/07/29 07:05:45;;;;;;;6.35;2.10;;;15.70;99.90;;;;;;5045142;28;20108;-56
2022/07/29 07:08:12;;;;;;;4.70;1.98;;;15.80;99.90;;;;;;5044889;28;20380;-50
2022/07/29 07:10:38;;;;;;;4.30;1.92;;;15.90;99.90;;;;;;5044942;28;20041;-53
2022/07/29 07:13:05;;;;;;;4.65;1.92;;;15.90;99.90;;;;;;5044890;28;20671;-50
2022/07/29 07:15:30;;;;;;;4.53;1.90;;;15.90;99.90;;;;;;5041565;28;20144;-49
2022/07/29 07:17:57;;;;;;;4.78;2.00;;;16.00;99.90;;;;;;5042324;28;20137;-51
2022/07/29 07:20:23;;;;;;;3.85;2.03;;;16.00;99.90;;;;;;5042090;28;20059;-49
2022/07/29 07:22:48;;;;;;;6.85;2.45;;;15.90;99.90;;;;;;5044110;28;20041;-55
2022/07/29 07:25:14;;;;;;;6.45;1.90;;;16.00;99.90;;;;;;5042728;28;20060;-51
2022/07/29 07:27:40;;;;;;;14.30;2.72;;;16.10;99.90;;;;;;5043827;28;20032;-53
2022/07/29 07:30:06;;;;;;;7.55;1.95;;;16.00;99.90;;;;;;5044222;28;20511;-51
2022/07/29 07:32:33;;;;;;;6.97;2.25;;;16.00;99.90;;;;;;5043194;28;20087;-53
2022/07/29 07:34:59;;;;;;;6.25;1.90;;;15.90;99.90;;;;;;5042727;28;20059;-51
2022/07/29 07:37:25;;;;;;;7.07;2.00;;;15.90;99.90;;;;;;5043040;28;20033;-53
2022/07/29 07:39:52;;;;;;;8.30;2.20;;;15.90;99.90;;;;;;5044288;28;20040;-50
2022/07/29 07:42:18;;;;;;;6.82;2.40;;;16.10;99.90;;;;;;5044339;28;20036;-49
2022/07/29 07:44:45;;;;;;;4.63;1.98;;;16.10;99.90;;;;;;5043839;28;20111;-50
2022/07/29 07:47:11;;;;;;;6.65;2.15;;;16.00;99.90;;;;;;5042563;28;20524;-50
2022/07/29 07:49:38;;;;;;;4.15;1.90;;;16.00;99.90;;;;;;5044250;28;20487;-52
2022/07/29 07:52:04;;;;;;;5.82;2.20;;;16.10;99.90;;;;;;5043085;28;20041;-51
2022/07/29 07:54:30;;;;;;;6.18;2.22;;;16.10;99.90;;;;;;5043950;28;20107;-49
2022/07/29 07:56:56;;;;;;;4.15;2.20;;;16.20;99.90;;;;;;5049341;28;20024;-52
2022/07/29 07:59:22;;;;;;;5.35;2.50;;;16.30;99.90;;;;;;5043299;28;20494;-51
2022/07/29 08:01:48;;;;;;;5.07;2.20;;;16.40;99.90;;;;;;5049307;28;20037;-51
2022/07/29 08:04:14;;;;;;;3.90;2.17;;;16.60;99.90;;;;;;5043084;28;20402;-48
2022/07/29 08:06:39;;;;;;;6.05;2.70;;;16.60;99.90;;;;;;5044452;28;20045;-52
2022/07/29 08:09:06;;;;;;;7.00;2.38;;;16.60;99.90;;;;;;5042152;28;20052;-50
2022/07/29 08:11:32;;;;;;;4.45;2.25;;;16.60;99.90;;;;;;5042582;28;20220;-51
2022/07/29 08:13:58;;;;;;;6.32;2.42;;;16.70;99.90;;;;;;5042610;28;20102;-51
2022/07/29 08:16:24;;;;;;;5.13;2.40;;;16.80;99.90;;;;;;5049451;28;20036;-53
2022/07/29 08:18:51;;;;;;;4.68;2.28;;;16.80;99.90;;;;;;5043253;28;20045;-53
2022/07/29 08:21:17;;;;;;;8.68;2.63;;;16.80;99.90;;;;;;5042561;28;20395;-51
2022/07/29 08:23:50;;;;;;;9.40;2.58;;;17.00;99.90;;;;;;5041741;28;20035;-51
2022/07/29 08:26:16;;;;;;;4.22;1.92;;;16.90;99.90;;;;;;5037444;28;20149;-49
2022/07/29 08:28:49;;;;;;;4.97;2.25;;;16.90;99.90;;;;;;5042957;28;20127;-50
2022/07/29 08:31:15;;;;;;;6.75;2.10;;;16.80;99.90;;;;;;5042655;28;20036;-52
2022/07/29 08:33:42;;;;;;;6.13;2.15;;;17.00;99.90;;;;;;5041625;28;20519;-51
2022/07/29 08:36:08;;;;;;;6.10;2.45;;;17.00;99.90;;;;;;5036298;28;20500;-53
2022/07/29 08:38:34;;;;;;;6.63;2.50;;;17.00;99.90;;;;;;5031183;28;20060;-54
2022/07/29 08:41:03;;;;;;;7.00;2.20;;;17.00;99.90;;;;;;5033835;28;20055;-53
2022/07/29 08:43:29;;;;;;;4.65;2.30;;;17.00;99.90;;;;;;5040393;28;20124;-52
2022/07/29 08:45:54;;;;;;;5.68;2.05;;;17.00;99.90;;;;;;5037675;28;20061;-54
2022/07/29 08:48:23;;;;;;;8.15;2.45;;;16.90;99.90;;;;;;5038960;28;20045;-52
2022/07/29 08:50:56;;;;;;;5.45;2.25;;;17.10;99.90;;;;;;5039871;28;20045;-49
2022/07/29 08:53:26;;;;;;;5.57;2.28;;;17.20;99.90;;;;;;5037857;28;20044;-50
2022/07/29 08:55:52;;;;;;;5.15;1.90;;;17.30;99.90;;;;;;5039463;28;20435;-50
2022/07/29 08:58:19;;;;;;;5.32;2.38;;;17.40;99.90;;;;;;5037434;28;20090;-53
2022/07/29 09:00:49;;;;;;;5.70;2.30;;;17.50;99.90;;;;;;5041190;28;20443;-51
2022/07/29 09:03:17;;;;;;;6.50;1.90;;;17.60;99.90;;;;;;5040773;28;20033;-51
2022/07/29 09:05:46;;;;;;;6.13;2.17;;;17.60;99.90;;;;;;5041249;28;20115;-52
2022/07/29 09:08:16;;;;;;;5.82;2.00;;;17.80;99.90;;;;;;5039587;28;20037;-53
2022/07/29 09:10:42;;;;;;;5.95;2.10;;;17.70;99.90;;;;;;5041895;28;20119;-54
2022/07/29 09:13:08;;;;;;;7.65;2.10;;;17.90;99.90;;;;;;5040315;28;20037;-54
2022/07/29 09:15:34;;;;;;;7.80;2.25;;;18.10;99.90;;;;;;5040996;28;20408;-52
2022/07/29 09:18:00;;;;;;;4.32;2.08;;;18.20;99.90;;;;;;5041000;28;20112;-52
2022/07/29 09:21:57;;;;;;;6.22;2.15;;;18.30;99.90;;;;;;5041770;28;20037;-55
2022/07/29 09:23:13;;;;;;;6.18;2.72;;;18.40;99.90;;;;;;5040212;28;20123;-52
2022/07/29 09:25:40;;;;;;;5.13;2.10;;;18.20;99.90;;;;;;5039862;28;20095;-53
2022/07/29 09:28:14;;;;;;;5.05;1.75;;;18.40;99.90;;;;;;5038804;28;20115;-51
2022/07/29 09:30:54;;;;;;;5.70;2.08;;;18.50;99.90;;;;;;5039150;28;20041;-49
2022/07/29 09:33:21;;;;;;;6.05;1.75;;;18.80;99.90;;;;;;5040080;28;20025;-51
2022/07/29 09:36:00;;;;;;;4.60;1.75;;;19.10;99.90;;;;;;5040216;28;20529;-51
2022/07/29 09:38:25;;;;;;;3.25;1.67;;;19.30;99.90;;;;;;5038486;28;20053;-51
2022/07/29 09:40:59;;;;;;;6.95;1.80;;;19.40;99.90;;;;;;5040423;28;20487;-54
2022/07/29 09:43:25;;;;;;;4.07;1.95;;;19.50;99.90;;;;;;5040383;28;20043;-53
2022/07/29 09:45:51;;;;;;;5.22;1.90;;;19.40;99.90;;;;;;5039412;28;20049;-55
2022/07/29 09:48:21;;;;;;;5.32;2.20;;;19.30;99.90;;;;;;5040974;28;20049;-53
2022/07/29 09:50:49;;;;;;;4.20;2.05;;;19.40;99.90;;;;;;5039504;28;20081;-52
2022/07/29 09:53:36;;;;;;;3.83;2.05;;;19.40;99.90;;;;;;5038136;28;20037;-49
2022/07/29 09:56:03;;;;;;;5.53;2.28;;;19.40;99.90;;;;;;5041376;28;20524;-51
2022/07/29 09:58:28;;;;;;;5.10;2.00;;;19.60;99.90;;;;;;5046868;28;20033;-56
2022/07/29 10:00:55;;;;;;;4.75;1.95;;;19.50;99.90;;;;;;5045598;28;20542;-55
2022/07/29 10:03:21;;;;;;;6.57;2.03;;;19.60;99.90;;;;;;5047232;28;20036;-53
2022/07/29 10:06:05;;;;;;;5.53;2.03;;;19.80;99.90;;;;;;5048694;28;20048;-52
2022/07/29 10:08:31;;;;;;;6.57;1.98;;;19.80;99.90;;;;;;5047641;28;20400;-51
2022/07/29 10:11:18;;;;;;;8.13;2.03;;;19.70;99.90;;;;;;5050469;28;20045;-52
2022/07/29 10:13:45;;;;;;;3.97;1.95;;;19.70;99.90;;;;;;5047204;28;20040;-53
2022/07/29 10:16:12;;;;;;;7.22;1.98;;;19.70;99.90;;;;;;5048511;28;21107;-52
2022/07/29 10:18:39;;;;;;;6.93;2.25;;;19.80;99.90;;;;;;5044642;28;20076;-53
2022/07/29 10:21:05;;;;;;;4.75;1.90;;;19.90;99.90;;;;;;5046851;28;20047;-53
2022/07/29 10:23:30;;;;;;;5.47;2.30;;;20.00;99.90;;;;;;5046341;28;20033;-52
2022/07/29 10:25:57;;;;;;;5.57;2.03;;;20.10;99.90;;;;;;5048818;28;20127;-53
2022/07/29 10:28:23;;;;;;;4.85;2.15;;;20.30;99.90;;;;;;5051734;28;20041;-55
2022/07/29 10:30:51;;;;;;;5.55;1.90;;;20.40;99.90;;;;;;5053053;28;20106;-50
2022/07/29 10:33:37;;;;;;;6.05;2.00;;;20.50;99.90;;;;;;5051939;28;20073;-52
2022/07/29 10:36:21;;;;;;;5.43;2.17;;;20.40;99.90;;;;;;5053559;28;20132;-54
2022/07/29 10:38:50;;;;;;;4.40;1.95;;;20.40;99.90;;;;;;5052444;28;20045;-50
2022/07/29 10:41:28;;;;;;;6.75;2.45;;;20.40;99.90;;;;;;5053590;28;20039;-55
2022/07/29 10:44:00;;;;;;;5.57;2.67;;;20.70;99.90;;;;;;5052001;28;20396;-52
2022/07/29 10:46:27;;;;;;;4.45;1.90;;;20.80;99.90;;;;;;5068010;28;20127;-55
2022/07/29 10:49:06;;;;;;;6.60;2.30;;;20.90;99.90;;;;;;5053677;28;20033;-56
2022/07/29 10:51:50;;;;;;;4.85;2.00;;;20.80;99.90;;;;;;5053893;28;20541;-55
2022/07/29 10:54:38;;;;;;;4.63;2.05;;;20.90;99.90;;;;;;5051770;28;20059;-52
2022/07/29 10:57:22;;;;;;;6.45;2.17;;;20.70;99.90;;;;;;5053431;28;20033;-51
2022/07/29 11:00:11;;;;;;;6.57;2.15;;;21.00;99.90;;;;;;5052624;28;20127;-54
2022/07/29 11:02:39;;;;;;;7.30;2.50;;;21.00;99.90;;;;;;5045661;28;20111;-54
2022/07/29 11:05:19;;;;;;;5.65;2.05;;;21.30;99.90;;;;;;5051569;28;20040;-57
2022/07/29 11:08:09;;;;;;;5.72;2.10;;;21.30;99.90;;;;;;5051184;28;20480;-54
2022/07/29 11:10:35;;;;;;;7.30;2.00;;;21.30;99.90;;;;;;5051986;28;20045;-52
2022/07/29 11:13:01;;;;;;;7.00;2.22;;;21.20;99.90;;;;;;5051901;28;20063;-53
2022/07/29 11:15:26;;;;;;;8.32;2.10;;;21.20;99.90;;;;;;5050774;28;20081;-51
2022/07/29 11:17:58;;;;;;;6.60;2.25;;;21.30;99.90;;;;;;5050175;28;20036;-52
2022/07/29 11:20:44;;;;;;;5.72;2.38;;;21.70;99.90;;;;;;5049654;28;20128;-51
2022/07/29 11:23:39;;;;;;;5.13;2.00;;;22.30;99.60;;;;;;5044726;28;20041;-51
2022/07/29 11:26:20;;;;;;;;;;;22.50;99.90;;;;;;5045560;28;20077;-54
2022/07/29 11:28:50;;;;;;;5.80;2.10;;;22.70;99.20;;;;;;5043245;28;19927;-51
2022/07/29 11:31:35;;;;;;;5.78;2.10;;;23.10;99.50;;;;;;5046904;28;20040;-53
2022/07/29 11:34:20;;;;;;;5.60;2.10;;;23.30;98.50;;;;;;5042584;28;20041;-54
2022/07/29 11:37:05;;;;;;;4.90;1.60;;;23.50;98.30;;;;;;5043471;28;20358;-56
2022/07/29 11:39:30;;;;;;;5.95;2.10;;;23.80;98.30;;;;;;5043423;28;20040;-52
2022/07/29 11:42:22;;;;;;;4.93;1.77;;;24.00;99.30;;;;;;5045145;28;20476;-54
2022/07/29 11:44:58;;;;;;;6.70;1.85;;;24.00;97.10;;;;;;5026355;28;20041;-51
2022/07/29 11:47:25;;;;;;;5.45;1.92;;;24.20;97.10;;;;;;5047559;28;20049;-55
2022/07/29 11:49:52;;;;;;;6.28;1.58;;;24.30;97.30;;;;;;5050592;28;20025;-56
2022/07/29 11:52:18;;;;;;;6.22;1.70;;;24.40;97.50;;;;;;5051582;28;20045;-55
2022/07/29 11:54:46;;;;;;;7.43;2.45;;;24.30;95.90;;;;;;5051173;28;20077;-56
2022/07/29 11:57:14;;;;;;;4.75;1.83;;;24.40;97.20;;;;;;5052120;28;20040;-53
2022/07/29 11:59:44;;;;;;;6.43;1.67;;;24.70;96.00;;;;;;5046631;28;20376;-51
2022/07/29 12:02:10;;;;;;;5.20;1.65;;;24.40;94.60;;;;;;5045073;28;20468;-54
2022/07/29 12:04:53;;;;;;;4.70;1.58;;;24.50;94.00;;;;;;5047225;28;20049;-52
2022/07/29 12:07:36;;;;;;;5.93;1.77;;;24.50;94.20;;;;;;5040743;28;20119;-53
2022/07/29 12:10:03;;;;;;;6.68;2.00;;;25.00;94.10;;;;;;5046035;28;20051;-55
2022/07/29 12:12:29;;;;;;;6.65;1.50;;;25.20;94.40;;;;;;5047032;28;20055;-53
2022/07/29 12:14:55;;;;;;;4.25;1.50;;;25.20;94.50;;;;;;5048380;28;20044;-54
2022/07/29 12:17:29;;;;;;;5.70;1.83;;;25.40;95.20;;;;;;5049749;28;20041;-51
2022/07/29 12:19:56;;;;;;;5.22;1.50;;;25.50;92.90;;;;;;5046622;28;20041;-55
2022/07/29 12:22:32;;;;;;;5.32;1.63;;;25.80;94.50;;;;;;5048212;28;20041;-53
2022/07/29 12:25:07;;;;;;;6.13;1.90;;;25.90;92.20;;;;;;5048485;28;20056;-56
2022/07/29 12:27:33;;;;;;;3.40;1.35;;;25.90;93.20;;;;;;5044652;28;20051;-55
2022/07/29 12:30:05;;;;;;;4.63;1.50;;;25.50;92.90;;;;;;5047923;28;20052;-55
2022/07/29 12:32:39;;;;;;;3.72;1.48;;;25.60;93.50;;;;;;5050916;28;20052;-55
2022/07/29 12:35:10;;;;;;;5.68;1.55;;;25.70;92.80;;;;;;5046692;28;20041;-52
2022/07/29 12:37:38;;;;;;;4.78;1.90;;;26.00;93.20;;;;;;5047491;28;20103;-51
2022/07/29 12:40:05;;;;;;;4.00;2.05;;;25.80;93.20;;;;;;5048103;28;20037;-55
2022/07/29 12:42:32;;;;;;;6.28;2.25;;;25.60;92.40;;;;;;5049182;28;20041;-49
2022/07/29 12:44:58;;;;;;;6.25;2.42;;;25.50;92.80;;;;;;5048970;28;20041;-53
2022/07/29 12:47:24;;;;;;;8.43;2.30;;;25.40;92.70;;;;;;5049217;28;20051;-53
2022/07/29 12:50:06;;;;;;;8.55;2.35;;;25.10;93.00;;;;;;5048477;28;20127;-53
2022/07/29 12:52:34;;;;;;;5.95;2.45;;;24.90;93.10;;;;;;5047954;28;20045;-52
2022/07/29 12:55:00;;;;;;;6.68;2.22;;;25.00;93.60;;;;;;5047964;28;20047;-51
2022/07/29 12:57:27;;;;;;;4.10;1.90;;;25.20;93.50;;;;;;5049513;28;20087;-53
2022/07/29 13:00:12;;;;;;;7.82;2.20;;;25.80;93.70;;;;;;5047901;28;20493;-54
2022/07/29 13:02:40;;;;;;;7.15;2.22;;;25.70;93.10;;;;;;5048572;28;20037;-53